map of KADF home
KADF - Airport
Location
City:  Arkadelphia, Arkansas, United States
Name:Dexter B Florence Memorial Field
ICAO:KADF
FAA LID:ADF

Details
Type:Airport (Airfield)
Use:Public/Civil
Latitude:3405'59"N (34.099806)
Longitude:9303'58"W (-93.066082)
Datum:WGS 1984
Elevation:181 ft (55 m)
Variation:0.75E (WMM2015v2 magnetic declination)
-0.09 annual change
Runways:1
Longest:5002 × 75 ft (1525 × 23 m), paved

Time
Time Zone:UTC-6 (DST-5)
Local Time:

Weather
METAR:KADF 041356Z AUTO 18008KT 10SM FEW033 OVC047 17/17 A2987 RMK AO2 SLP118 T01720167
TAF:KADF 041140Z 0412/0512 19008KT P6SM OVC010
FM041600 21008G16KT P6SM BKN015
FM041800 23012KT P6SM SCT030
FM050000 VRB04KT P6SM SCT100 BKN250
FM050600 VRB03KT 4SM BR OVC012

Related Locations
Nearby:
Farthest:YAUG: 10833 mi / 17434 km
Augusta [Augusta Airport], WA, AU

Find:

   beyond  
but within

Other Information
Maps:
NOTAMs:
Links:
Sources:

  
  • flag of United States
  • flag of Arkansas
  

Sectional Chart

Flight Planning
at skyvector.com

Satellite Image

Google Maps Satellite view

 

Copyright © 2004-2019 Karl L. Swartz. All rights reserved.
The Great Circle Mapper name and logo are trademarks of the Great Circle Mapper.
All other trademarks mentioned herein belong to their respective owners.
Please see credits for attibutions and further copyright information.

  Follow gcmap on Facebook Follow gcmap on Twitter GCmap on LinkedIn

hCard Microformat

Geo Microformat